sensor_id;sensor_type;location;lat;lon;timestamp;P1;durP1;ratioP1;P2;durP2;ratioP2
8919;SDS011;4495;42.644;23.274;2024-03-23T00:56:11;1.65;;;0.73;;
8919;SDS011;4495;42.644;23.274;2024-03-23T00:58:36;2.58;;;0.93;;
8919;SDS011;4495;42.644;23.274;2024-03-23T01:01:02;3.17;;;1.60;;
8919;SDS011;4495;42.644;23.274;2024-03-23T01:03:29;2.85;;;1.50;;
8919;SDS011;4495;42.644;23.274;2024-03-23T01:05:58;2.58;;;1.48;;
8919;SDS011;4495;42.644;23.274;2024-03-23T01:08:24;1.33;;;0.80;;
8919;SDS011;4495;42.644;23.274;2024-03-23T01:13:21;1.65;;;0.90;;
8919;SDS011;4495;42.644;23.274;2024-03-23T01:15:50;0.90;;;0.50;;
8919;SDS011;4495;42.644;23.274;2024-03-23T01:18:20;2.15;;;0.95;;
8919;SDS011;4495;42.644;23.274;2024-03-23T01:20:46;3.50;;;1.55;;
8919;SDS011;4495;42.644;23.274;2024-03-23T01:23:12;2.13;;;0.98;;
8919;SDS011;4495;42.644;23.274;2024-03-23T01:25:37;2.55;;;1.13;;
8919;SDS011;4495;42.644;23.274;2024-03-23T01:28:03;0.75;;;0.50;;
8919;SDS011;4495;42.644;23.274;2024-03-23T01:30:29;1.25;;;0.63;;
8919;SDS011;4495;42.644;23.274;2024-03-23T01:32:55;1.85;;;0.80;;
8919;SDS011;4495;42.644;23.274;2024-03-23T01:35:21;4.90;;;0.88;;
8919;SDS011;4495;42.644;23.274;2024-03-23T01:37:47;0.93;;;0.80;;
8919;SDS011;4495;42.644;23.274;2024-03-23T01:40:12;1.05;;;0.90;;
8919;SDS011;4495;42.644;23.274;2024-03-23T01:42:40;5.68;;;2.00;;
8919;SDS011;4495;42.644;23.274;2024-03-23T01:45:07;1.58;;;1.10;;
8919;SDS011;4495;42.644;23.274;2024-03-23T01:47:33;1.88;;;1.00;;
8919;SDS011;4495;42.644;23.274;2024-03-23T01:49:58;1.88;;;0.95;;
8919;SDS011;4495;42.644;23.274;2024-03-23T01:52:24;1.95;;;1.15;;
8919;SDS011;4495;42.644;23.274;2024-03-23T01:54:50;1.85;;;1.10;;
8919;SDS011;4495;42.644;23.274;2024-03-23T01:57:16;1.52;;;0.95;;
8919;SDS011;4495;42.644;23.274;2024-03-23T01:59:42;3.22;;;1.48;;
8919;SDS011;4495;42.644;23.274;2024-03-23T02:02:07;2.25;;;1.23;;
8919;SDS011;4495;42.644;23.274;2024-03-23T02:04:33;3.88;;;1.30;;
8919;SDS011;4495;42.644;23.274;2024-03-23T02:06:58;2.58;;;1.05;;
8919;SDS011;4495;42.644;23.274;2024-03-23T02:09:24;3.38;;;1.00;;
8919;SDS011;4495;42.644;23.274;2024-03-23T02:11:50;2.45;;;1.17;;
8919;SDS011;4495;42.644;23.274;2024-03-23T02:14:15;3.53;;;1.40;;
8919;SDS011;4495;42.644;23.274;2024-03-23T02:16:41;1.65;;;1.02;;
8919;SDS011;4495;42.644;23.274;2024-03-23T02:19:08;1.48;;;0.75;;
8919;SDS011;4495;42.644;23.274;2024-03-23T02:21:33;2.90;;;1.60;;
8919;SDS011;4495;42.644;23.274;2024-03-23T02:23:59;2.58;;;1.40;;
8919;SDS011;4495;42.644;23.274;2024-03-23T02:26:25;2.78;;;1.45;;
8919;SDS011;4495;42.644;23.274;2024-03-23T02:28:51;4.20;;;1.52;;
8919;SDS011;4495;42.644;23.274;2024-03-23T02:31:16;5.10;;;1.73;;
8919;SDS011;4495;42.644;23.274;2024-03-23T02:33:41;2.75;;;1.50;;
8919;SDS011;4495;42.644;23.274;2024-03-23T02:36:07;3.58;;;1.50;;
8919;SDS011;4495;42.644;23.274;2024-03-23T02:38:32;4.70;;;2.00;;
8919;SDS011;4495;42.644;23.274;2024-03-23T02:41:04;1.02;;;0.90;;
8919;SDS011;4495;42.644;23.274;2024-03-23T02:43:29;2.72;;;1.20;;
8919;SDS011;4495;42.644;23.274;2024-03-23T02:45:55;4.80;;;1.73;;
8919;SDS011;4495;42.644;23.274;2024-03-23T02:48:20;2.78;;;1.40;;
8919;SDS011;4495;42.644;23.274;2024-03-23T02:50:45;3.85;;;1.92;;
8919;SDS011;4495;42.644;23.274;2024-03-23T02:53:11;2.85;;;1.27;;
8919;SDS011;4495;42.644;23.274;2024-03-23T02:55:36;2.88;;;1.92;;
8919;SDS011;4495;42.644;23.274;2024-03-23T02:58:02;2.97;;;1.77;;
8919;SDS011;4495;42.644;23.274;2024-03-23T03:00:28;4.32;;;1.98;;
8919;SDS011;4495;42.644;23.274;2024-03-23T03:02:53;2.97;;;1.50;;
8919;SDS011;4495;42.644;23.274;2024-03-23T03:05:19;2.83;;;1.42;;
8919;SDS011;4495;42.644;23.274;2024-03-23T03:07:44;3.28;;;1.90;;
8919;SDS011;4495;42.644;23.274;2024-03-23T03:10:09;3.30;;;2.20;;
8919;SDS011;4495;42.644;23.274;2024-03-23T03:12:36;3.97;;;2.30;;
8919;SDS011;4495;42.644;23.274;2024-03-23T03:15:02;3.92;;;1.90;;
8919;SDS011;4495;42.644;23.274;2024-03-23T03:17:31;5.57;;;2.30;;
8919;SDS011;4495;42.644;23.274;2024-03-23T03:19:57;4.65;;;2.40;;
8919;SDS011;4495;42.644;23.274;2024-03-23T03:22:22;5.18;;;2.70;;
8919;SDS011;4495;42.644;23.274;2024-03-23T03:24:48;6.03;;;2.78;;
8919;SDS011;4495;42.644;23.274;2024-03-23T03:27:14;4.85;;;2.17;;
8919;SDS011;4495;42.644;23.274;2024-03-23T03:29:40;4.85;;;2.28;;
8919;SDS011;4495;42.644;23.274;2024-03-23T03:32:05;6.50;;;2.40;;
8919;SDS011;4495;42.644;23.274;2024-03-23T03:34:31;3.85;;;2.40;;
8919;SDS011;4495;42.644;23.274;2024-03-23T03:36:56;3.90;;;2.30;;
8919;SDS011;4495;42.644;23.274;2024-03-23T03:39:23;6.50;;;2.35;;
8919;SDS011;4495;42.644;23.274;2024-03-23T03:41:49;3.58;;;2.10;;
8919;SDS011;4495;42.644;23.274;2024-03-23T03:44:15;3.28;;;2.13;;
8919;SDS011;4495;42.644;23.274;2024-03-23T03:46:41;3.78;;;2.17;;
8919;SDS011;4495;42.644;23.274;2024-03-23T03:49:06;3.85;;;1.58;;
8919;SDS011;4495;42.644;23.274;2024-03-23T03:51:32;6.13;;;2.10;;
8919;SDS011;4495;42.644;23.274;2024-03-23T03:53:57;4.65;;;2.22;;
8919;SDS011;4495;42.644;23.274;2024-03-23T03:56:23;5.10;;;2.30;;
8919;SDS011;4495;42.644;23.274;2024-03-23T03:58:48;4.10;;;2.20;;
8919;SDS011;4495;42.644;23.274;2024-03-23T04:01:14;4.40;;;2.35;;
8919;SDS011;4495;42.644;23.274;2024-03-23T04:03:39;3.67;;;1.77;;
8919;SDS011;4495;42.644;23.274;2024-03-23T04:06:08;3.78;;;2.03;;
8919;SDS011;4495;42.644;23.274;2024-03-23T04:08:34;6.82;;;2.83;;
8919;SDS011;4495;42.644;23.274;2024-03-23T04:10:59;6.88;;;2.35;;
8919;SDS011;4495;42.644;23.274;2024-03-23T04:13:25;3.30;;;2.10;;
8919;SDS011;4495;42.644;23.274;2024-03-23T04:15:53;4.00;;;2.50;;
8919;SDS011;4495;42.644;23.274;2024-03-23T04:18:22;6.28;;;2.00;;
8919;SDS011;4495;42.644;23.274;2024-03-23T04:20:51;3.42;;;1.77;;
8919;SDS011;4495;42.644;23.274;2024-03-23T04:23:16;3.13;;;2.00;;
8919;SDS011;4495;42.644;23.274;2024-03-23T04:25:42;4.20;;;2.17;;
8919;SDS011;4495;42.644;23.274;2024-03-23T04:28:07;5.45;;;2.42;;
8919;SDS011;4495;42.644;23.274;2024-03-23T04:30:33;4.82;;;2.05;;
8919;SDS011;4495;42.644;23.274;2024-03-23T04:32:58;5.57;;;2.10;;
8919;SDS011;4495;42.644;23.274;2024-03-23T04:35:24;4.55;;;2.17;;
8919;SDS011;4495;42.644;23.274;2024-03-23T04:37:50;4.63;;;2.60;;
8919;SDS011;4495;42.644;23.274;2024-03-23T04:40:20;3.35;;;2.10;;
8919;SDS011;4495;42.644;23.274;2024-03-23T04:42:46;6.68;;;2.35;;
8919;SDS011;4495;42.644;23.274;2024-03-23T04:45:11;4.55;;;2.30;;
8919;SDS011;4495;42.644;23.274;2024-03-23T04:47:40;5.38;;;2.88;;
8919;SDS011;4495;42.644;23.274;2024-03-23T04:50:05;5.38;;;2.75;;
8919;SDS011;4495;42.644;23.274;2024-03-23T04:52:31;5.78;;;2.25;;
8919;SDS011;4495;42.644;23.274;2024-03-23T04:54:56;7.28;;;2.92;;
8919;SDS011;4495;42.644;23.274;2024-03-23T04:57:22;10.00;;;2.80;;
8919;SDS011;4495;42.644;23.274;2024-03-23T04:59:48;7.50;;;2.75;;
8919;SDS011;4495;42.644;23.274;2024-03-23T05:02:13;5.22;;;2.85;;
8919;SDS011;4495;42.644;23.274;2024-03-23T05:04:40;5.53;;;2.20;;
8919;SDS011;4495;42.644;23.274;2024-03-23T05:07:08;8.43;;;3.25;;
8919;SDS011;4495;42.644;23.274;2024-03-23T05:09:33;5.25;;;2.78;;
8919;SDS011;4495;42.644;23.274;2024-03-23T05:11:59;4.05;;;2.42;;
8919;SDS011;4495;42.644;23.274;2024-03-23T05:14:25;6.10;;;3.00;;
8919;SDS011;4495;42.644;23.274;2024-03-23T05:16:51;6.65;;;3.42;;
8919;SDS011;4495;42.644;23.274;2024-03-23T05:19:17;8.55;;;3.80;;
8919;SDS011;4495;42.644;23.274;2024-03-23T05:21:43;8.00;;;3.45;;
8919;SDS011;4495;42.644;23.274;2024-03-23T05:24:08;5.15;;;2.90;;
8919;SDS011;4495;42.644;23.274;2024-03-23T05:26:34;7.03;;;3.03;;
8919;SDS011;4495;42.644;23.274;2024-03-23T05:31:26;6.03;;;2.70;;
8919;SDS011;4495;42.644;23.274;2024-03-23T05:33:53;9.68;;;4.32;;
8919;SDS011;4495;42.644;23.274;2024-03-23T05:36:18;12.00;;;5.57;;
8919;SDS011;4495;42.644;23.274;2024-03-23T05:38:44;10.68;;;5.47;;
8919;SDS011;4495;42.644;23.274;2024-03-23T05:41:09;12.98;;;5.65;;
8919;SDS011;4495;42.644;23.274;2024-03-23T05:43:35;11.27;;;5.43;;
8919;SDS011;4495;42.644;23.274;2024-03-23T05:46:00;10.48;;;5.38;;
8919;SDS011;4495;42.644;23.274;2024-03-23T05:48:32;12.18;;;6.18;;
8919;SDS011;4495;42.644;23.274;2024-03-23T05:50:58;8.98;;;5.30;;
8919;SDS011;4495;42.644;23.274;2024-03-23T05:53:24;13.00;;;5.70;;
8919;SDS011;4495;42.644;23.274;2024-03-23T05:55:50;10.80;;;5.88;;
8919;SDS011;4495;42.644;23.274;2024-03-23T05:58:18;12.40;;;5.80;;
8919;SDS011;4495;42.644;23.274;2024-03-23T06:00:45;10.38;;;5.38;;
8919;SDS011;4495;42.644;23.274;2024-03-23T06:03:12;13.95;;;6.45;;
8919;SDS011;4495;42.644;23.274;2024-03-23T06:05:37;13.07;;;5.57;;
8919;SDS011;4495;42.644;23.274;2024-03-23T06:08:03;13.85;;;7.03;;
8919;SDS011;4495;42.644;23.274;2024-03-23T06:10:29;15.43;;;7.28;;
8919;SDS011;4495;42.644;23.274;2024-03-23T06:12:54;14.57;;;6.18;;
8919;SDS011;4495;42.644;23.274;2024-03-23T06:15:20;12.98;;;7.00;;
8919;SDS011;4495;42.644;23.274;2024-03-23T06:17:47;12.50;;;6.20;;
8919;SDS011;4495;42.644;23.274;2024-03-23T06:20:13;14.02;;;6.88;;
8919;SDS011;4495;42.644;23.274;2024-03-23T06:22:39;18.13;;;7.55;;
8919;SDS011;4495;42.644;23.274;2024-03-23T06:25:05;14.00;;;6.85;;
8919;SDS011;4495;42.644;23.274;2024-03-23T06:27:31;12.77;;;5.35;;
8919;SDS011;4495;42.644;23.274;2024-03-23T06:32:27;10.13;;;5.68;;
8919;SDS011;4495;42.644;23.274;2024-03-23T06:34:54;10.15;;;5.32;;
8919;SDS011;4495;42.644;23.274;2024-03-23T06:37:19;16.48;;;7.53;;
8919;SDS011;4495;42.644;23.274;2024-03-23T06:39:45;14.15;;;6.47;;
8919;SDS011;4495;42.644;23.274;2024-03-23T06:42:11;15.68;;;7.50;;
8919;SDS011;4495;42.644;23.274;2024-03-23T06:44:38;16.08;;;6.95;;
8919;SDS011;4495;42.644;23.274;2024-03-23T06:47:03;13.27;;;7.10;;
8919;SDS011;4495;42.644;23.274;2024-03-23T06:49:29;13.40;;;7.75;;
8919;SDS011;4495;42.644;23.274;2024-03-23T06:51:54;15.20;;;7.95;;
8919;SDS011;4495;42.644;23.274;2024-03-23T06:54:20;11.40;;;6.43;;
8919;SDS011;4495;42.644;23.274;2024-03-23T06:56:45;14.00;;;7.50;;
8919;SDS011;4495;42.644;23.274;2024-03-23T06:59:11;15.00;;;7.95;;
8919;SDS011;4495;42.644;23.274;2024-03-23T07:01:36;15.07;;;7.47;;
8919;SDS011;4495;42.644;23.274;2024-03-23T07:04:02;12.73;;;7.63;;
8919;SDS011;4495;42.644;23.274;2024-03-23T07:06:29;12.38;;;6.78;;
8919;SDS011;4495;42.644;23.274;2024-03-23T07:08:55;14.18;;;6.32;;
8919;SDS011;4495;42.644;23.274;2024-03-23T07:11:21;13.27;;;7.63;;
8919;SDS011;4495;42.644;23.274;2024-03-23T07:13:51;16.23;;;7.45;;
8919;SDS011;4495;42.644;23.274;2024-03-23T07:16:17;16.30;;;7.90;;
8919;SDS011;4495;42.644;23.274;2024-03-23T07:18:43;12.82;;;7.13;;
8919;SDS011;4495;42.644;23.274;2024-03-23T07:21:08;11.90;;;7.15;;
8919;SDS011;4495;42.644;23.274;2024-03-23T07:23:34;15.95;;;8.00;;
8919;SDS011;4495;42.644;23.274;2024-03-23T07:26:00;15.48;;;8.25;;
8919;SDS011;4495;42.644;23.274;2024-03-23T07:28:27;14.68;;;8.35;;
8919;SDS011;4495;42.644;23.274;2024-03-23T07:33:35;15.93;;;8.13;;
8919;SDS011;4495;42.644;23.274;2024-03-23T07:36:01;14.48;;;7.20;;
8919;SDS011;4495;42.644;23.274;2024-03-23T07:38:30;16.85;;;7.72;;
8919;SDS011;4495;42.644;23.274;2024-03-23T07:41:05;15.63;;;8.07;;
8919;SDS011;4495;42.644;23.274;2024-03-23T07:43:32;16.58;;;7.97;;
8919;SDS011;4495;42.644;23.274;2024-03-23T07:45:58;12.25;;;7.22;;
8919;SDS011;4495;42.644;23.274;2024-03-23T07:48:24;17.58;;;8.20;;
8919;SDS011;4495;42.644;23.274;2024-03-23T07:51:06;18.23;;;8.80;;
8919;SDS011;4495;42.644;23.274;2024-03-23T07:53:33;13.95;;;8.18;;
8919;SDS011;4495;42.644;23.274;2024-03-23T07:58:28;16.10;;;8.00;;
8919;SDS011;4495;42.644;23.274;2024-03-23T08:01:02;17.17;;;8.38;;
8919;SDS011;4495;42.644;23.274;2024-03-23T08:03:38;17.63;;;8.48;;
8919;SDS011;4495;42.644;23.274;2024-03-23T08:06:11;20.10;;;9.20;;
8919;SDS011;4495;42.644;23.274;2024-03-23T08:08:38;17.85;;;9.35;;
8919;SDS011;4495;42.644;23.274;2024-03-23T08:11:05;17.35;;;8.18;;
8919;SDS011;4495;42.644;23.274;2024-03-23T08:13:31;16.55;;;9.40;;
8919;SDS011;4495;42.644;23.274;2024-03-23T08:15:57;13.57;;;8.50;;
8919;SDS011;4495;42.644;23.274;2024-03-23T08:18:26;17.25;;;8.70;;
8919;SDS011;4495;42.644;23.274;2024-03-23T08:20:56;18.08;;;8.13;;
8919;SDS011;4495;42.644;23.274;2024-03-23T08:23:28;19.83;;;9.38;;
8919;SDS011;4495;42.644;23.274;2024-03-23T08:25:57;16.15;;;8.60;;
8919;SDS011;4495;42.644;23.274;2024-03-23T08:28:24;17.40;;;8.70;;
8919;SDS011;4495;42.644;23.274;2024-03-23T08:30:50;16.20;;;8.50;;
8919;SDS011;4495;42.644;23.274;2024-03-23T08:33:16;18.33;;;8.00;;
8919;SDS011;4495;42.644;23.274;2024-03-23T08:35:41;15.68;;;8.52;;
8919;SDS011;4495;42.644;23.274;2024-03-23T08:38:08;14.77;;;7.82;;
8919;SDS011;4495;42.644;23.274;2024-03-23T08:40:34;22.60;;;9.15;;
8919;SDS011;4495;42.644;23.274;2024-03-23T08:42:59;18.67;;;9.07;;
8919;SDS011;4495;42.644;23.274;2024-03-23T08:45:25;15.05;;;8.38;;
8919;SDS011;4495;42.644;23.274;2024-03-23T08:47:50;21.20;;;8.13;;
8919;SDS011;4495;42.644;23.274;2024-03-23T08:50:16;14.13;;;8.27;;
8919;SDS011;4495;42.644;23.274;2024-03-23T08:52:41;17.83;;;8.63;;
8919;SDS011;4495;42.644;23.274;2024-03-23T08:55:07;15.60;;;7.47;;
8919;SDS011;4495;42.644;23.274;2024-03-23T08:57:34;12.13;;;6.05;;
8919;SDS011;4495;42.644;23.274;2024-03-23T09:00:00;18.70;;;8.95;;
8919;SDS011;4495;42.644;23.274;2024-03-23T09:02:26;17.48;;;7.22;;
8919;SDS011;4495;42.644;23.274;2024-03-23T09:04:51;16.55;;;7.03;;
8919;SDS011;4495;42.644;23.274;2024-03-23T09:07:17;20.63;;;9.38;;
8919;SDS011;4495;42.644;23.274;2024-03-23T09:09:42;17.83;;;8.65;;
8919;SDS011;4495;42.644;23.274;2024-03-23T09:12:08;21.50;;;7.90;;
8919;SDS011;4495;42.644;23.274;2024-03-23T09:14:33;12.55;;;6.30;;
8919;SDS011;4495;42.644;23.274;2024-03-23T09:16:59;12.48;;;7.45;;
8919;SDS011;4495;42.644;23.274;2024-03-23T09:19:26;13.60;;;6.97;;
8919;SDS011;4495;42.644;23.274;2024-03-23T09:21:53;20.00;;;7.18;;
8919;SDS011;4495;42.644;23.274;2024-03-23T09:24:19;13.15;;;7.00;;
8919;SDS011;4495;42.644;23.274;2024-03-23T09:26:44;13.18;;;7.45;;
8919;SDS011;4495;42.644;23.274;2024-03-23T09:29:09;14.75;;;7.72;;
8919;SDS011;4495;42.644;23.274;2024-03-23T09:31:35;13.73;;;6.88;;
8919;SDS011;4495;42.644;23.274;2024-03-23T09:34:01;13.98;;;7.45;;
8919;SDS011;4495;42.644;23.274;2024-03-23T09:36:26;13.05;;;6.45;;
8919;SDS011;4495;42.644;23.274;2024-03-23T09:38:52;10.55;;;6.28;;
8919;SDS011;4495;42.644;23.274;2024-03-23T09:41:17;14.02;;;7.30;;
8919;SDS011;4495;42.644;23.274;2024-03-23T09:43:43;11.63;;;6.72;;
8919;SDS011;4495;42.644;23.274;2024-03-23T09:46:08;11.88;;;7.20;;
8919;SDS011;4495;42.644;23.274;2024-03-23T09:48:34;15.50;;;7.40;;
8919;SDS011;4495;42.644;23.274;2024-03-23T09:51:01;16.45;;;6.70;;
8919;SDS011;4495;42.644;23.274;2024-03-23T09:53:27;17.83;;;6.88;;
8919;SDS011;4495;42.644;23.274;2024-03-23T09:55:53;14.10;;;7.07;;
8919;SDS011;4495;42.644;23.274;2024-03-23T09:58:18;14.77;;;6.70;;
8919;SDS011;4495;42.644;23.274;2024-03-23T10:00:44;12.98;;;7.03;;
8919;SDS011;4495;42.644;23.274;2024-03-23T10:03:09;15.25;;;7.30;;
8919;SDS011;4495;42.644;23.274;2024-03-23T10:10:42;13.05;;;7.03;;
8919;SDS011;4495;42.644;23.274;2024-03-23T10:13:08;16.70;;;8.07;;
8919;SDS011;4495;42.644;23.274;2024-03-23T10:15:35;15.23;;;7.10;;
8919;SDS011;4495;42.644;23.274;2024-03-23T10:18:20;13.73;;;6.78;;
8919;SDS011;4495;42.644;23.274;2024-03-23T10:21:08;9.63;;;6.70;;
8919;SDS011;4495;42.644;23.274;2024-03-23T10:23:36;12.10;;;6.22;;
8919;SDS011;4495;42.644;23.274;2024-03-23T10:26:19;11.02;;;6.30;;
8919;SDS011;4495;42.644;23.274;2024-03-23T10:31:26;10.95;;;5.20;;
8919;SDS011;4495;42.644;23.274;2024-03-23T10:33:55;9.23;;;5.53;;
8919;SDS011;4495;42.644;23.274;2024-03-23T10:36:24;6.93;;;4.90;;
8919;SDS011;4495;42.644;23.274;2024-03-23T10:38:53;8.85;;;5.35;;
8919;SDS011;4495;42.644;23.274;2024-03-23T10:41:19;11.68;;;5.68;;
8919;SDS011;4495;42.644;23.274;2024-03-23T10:43:45;8.75;;;5.32;;
8919;SDS011;4495;42.644;23.274;2024-03-23T10:46:12;9.52;;;5.43;;
8919;SDS011;4495;42.644;23.274;2024-03-23T10:48:37;10.63;;;5.65;;
8919;SDS011;4495;42.644;23.274;2024-03-23T10:51:04;9.98;;;5.50;;
8919;SDS011;4495;42.644;23.274;2024-03-23T10:53:32;11.02;;;5.93;;
8919;SDS011;4495;42.644;23.274;2024-03-23T10:55:59;13.27;;;5.75;;
8919;SDS011;4495;42.644;23.274;2024-03-23T10:58:38;11.10;;;5.35;;
8919;SDS011;4495;42.644;23.274;2024-03-23T11:01:05;9.82;;;5.32;;
8919;SDS011;4495;42.644;23.274;2024-03-23T11:03:34;11.93;;;5.30;;
8919;SDS011;4495;42.644;23.274;2024-03-23T11:06:02;10.02;;;5.60;;
8919;SDS011;4495;42.644;23.274;2024-03-23T11:08:32;10.07;;;5.75;;
8919;SDS011;4495;42.644;23.274;2024-03-23T11:13:49;12.98;;;5.40;;
8919;SDS011;4495;42.644;23.274;2024-03-23T11:16:22;11.90;;;6.30;;
8919;SDS011;4495;42.644;23.274;2024-03-23T11:18:49;9.32;;;6.05;;
8919;SDS011;4495;42.644;23.274;2024-03-23T11:24:20;10.13;;;5.50;;
8919;SDS011;4495;42.644;23.274;2024-03-23T11:26:47;10.02;;;5.50;;
8919;SDS011;4495;42.644;23.274;2024-03-23T11:29:16;13.25;;;5.85;;
8919;SDS011;4495;42.644;23.274;2024-03-23T11:31:49;10.82;;;4.85;;
8919;SDS011;4495;42.644;23.274;2024-03-23T11:34:16;7.68;;;4.93;;
8919;SDS011;4495;42.644;23.274;2024-03-23T11:36:45;7.70;;;4.10;;
8919;SDS011;4495;42.644;23.274;2024-03-23T11:41:55;4.63;;;2.47;;
8919;SDS011;4495;42.644;23.274;2024-03-23T11:44:22;5.00;;;2.85;;
8919;SDS011;4495;42.644;23.274;2024-03-23T11:46:49;4.90;;;2.50;;
8919;SDS011;4495;42.644;23.274;2024-03-23T11:49:21;4.28;;;2.55;;
8919;SDS011;4495;42.644;23.274;2024-03-23T11:51:51;3.40;;;2.25;;
8919;SDS011;4495;42.644;23.274;2024-03-23T11:54:22;3.97;;;2.47;;
8919;SDS011;4495;42.644;23.274;2024-03-23T11:56:56;4.85;;;2.50;;
8919;SDS011;4495;42.644;23.274;2024-03-23T11:59:36;4.35;;;2.38;;
8919;SDS011;4495;42.644;23.274;2024-03-23T12:02:12;5.05;;;2.28;;
8919;SDS011;4495;42.644;23.274;2024-03-23T12:04:41;3.55;;;2.40;;
8919;SDS011;4495;42.644;23.274;2024-03-23T12:12:44;3.00;;;2.10;;
8919;SDS011;4495;42.644;23.274;2024-03-23T12:15:10;2.45;;;1.77;;
8919;SDS011;4495;42.644;23.274;2024-03-23T12:17:37;3.13;;;2.00;;
8919;SDS011;4495;42.644;23.274;2024-03-23T12:20:03;2.30;;;1.70;;
8919;SDS011;4495;42.644;23.274;2024-03-23T12:22:29;2.10;;;1.25;;
8919;SDS011;4495;42.644;23.274;2024-03-23T12:24:55;2.47;;;1.80;;
8919;SDS011;4495;42.644;23.274;2024-03-23T12:27:23;2.45;;;1.65;;
8919;SDS011;4495;42.644;23.274;2024-03-23T12:29:48;2.35;;;1.63;;
8919;SDS011;4495;42.644;23.274;2024-03-23T12:32:14;2.63;;;1.70;;
8919;SDS011;4495;42.644;23.274;2024-03-23T12:34:41;4.45;;;1.98;;
8919;SDS011;4495;42.644;23.274;2024-03-23T12:37:06;2.63;;;1.23;;
8919;SDS011;4495;42.644;23.274;2024-03-23T12:39:32;1.65;;;1.42;;
8919;SDS011;4495;42.644;23.274;2024-03-23T12:44:23;2.50;;;1.50;;
8919;SDS011;4495;42.644;23.274;2024-03-23T12:49:13;2.43;;;1.23;;
8919;SDS011;4495;42.644;23.274;2024-03-23T12:56:36;2.15;;;1.20;;
8919;SDS011;4495;42.644;23.274;2024-03-23T13:01:27;1.27;;;0.63;;
8919;SDS011;4495;42.644;23.274;2024-03-23T13:06:18;1.17;;;0.80;;
8919;SDS011;4495;42.644;23.274;2024-03-23T13:08:47;1.63;;;0.98;;
8919;SDS011;4495;42.644;23.274;2024-03-23T13:11:15;2.75;;;1.33;;
8919;SDS011;4495;42.644;23.274;2024-03-23T13:13:40;2.78;;;1.20;;
8919;SDS011;4495;42.644;23.274;2024-03-23T13:16:07;1.23;;;0.68;;
8919;SDS011;4495;42.644;23.274;2024-03-23T13:20:58;1.55;;;1.00;;
8919;SDS011;4495;42.644;23.274;2024-03-23T13:23:24;1.48;;;0.88;;
8919;SDS011;4495;42.644;23.274;2024-03-23T13:25:53;2.15;;;1.10;;
8919;SDS011;4495;42.644;23.274;2024-03-23T13:28:20;1.60;;;0.80;;
8919;SDS011;4495;42.644;23.274;2024-03-23T13:30:50;2.17;;;0.95;;
8919;SDS011;4495;42.644;23.274;2024-03-23T13:33:18;3.08;;;1.40;;
8919;SDS011;4495;42.644;23.274;2024-03-23T13:35:51;1.52;;;0.95;;
8919;SDS011;4495;42.644;23.274;2024-03-23T13:38:22;1.70;;;1.10;;
8919;SDS011;4495;42.644;23.274;2024-03-23T13:40:55;1.90;;;1.13;;
8919;SDS011;4495;42.644;23.274;2024-03-23T13:43:22;1.63;;;1.20;;
8919;SDS011;4495;42.644;23.274;2024-03-23T13:45:49;5.30;;;1.23;;
8919;SDS011;4495;42.644;23.274;2024-03-23T13:48:19;3.05;;;1.42;;
8919;SDS011;4495;42.644;23.274;2024-03-23T13:50:45;2.60;;;1.40;;
8919;SDS011;4495;42.644;23.274;2024-03-23T13:53:13;5.72;;;1.40;;
8919;SDS011;4495;42.644;23.274;2024-03-23T13:58:11;2.90;;;1.20;;
8919;SDS011;4495;42.644;23.274;2024-03-23T14:00:37;3.10;;;1.48;;
8919;SDS011;4495;42.644;23.274;2024-03-23T14:03:02;2.95;;;1.70;;
8919;SDS011;4495;42.644;23.274;2024-03-23T14:05:28;2.15;;;1.00;;
8919;SDS011;4495;42.644;23.274;2024-03-23T14:07:53;1.35;;;1.05;;
8919;SDS011;4495;42.644;23.274;2024-03-23T14:10:19;4.43;;;1.10;;
8919;SDS011;4495;42.644;23.274;2024-03-23T14:12:44;2.10;;;1.13;;
8919;SDS011;4495;42.644;23.274;2024-03-23T14:15:09;2.55;;;1.33;;
8919;SDS011;4495;42.644;23.274;2024-03-23T14:17:35;2.88;;;1.20;;
8919;SDS011;4495;42.644;23.274;2024-03-23T14:20:00;21.63;;;9.75;;
8919;SDS011;4495;42.644;23.274;2024-03-23T14:22:29;38.72;;;19.42;;
8919;SDS011;4495;42.644;23.274;2024-03-23T14:24:54;7.22;;;3.30;;
8919;SDS011;4495;42.644;23.274;2024-03-23T14:27:20;38.83;;;18.50;;
8919;SDS011;4495;42.644;23.274;2024-03-23T14:29:46;5.18;;;2.10;;
8919;SDS011;4495;42.644;23.274;2024-03-23T14:32:12;3.75;;;2.05;;
8919;SDS011;4495;42.644;23.274;2024-03-23T14:34:37;3.95;;;1.67;;
8919;SDS011;4495;42.644;23.274;2024-03-23T14:37:03;4.57;;;2.78;;
8919;SDS011;4495;42.644;23.274;2024-03-23T14:39:29;15.93;;;2.33;;
8919;SDS011;4495;42.644;23.274;2024-03-23T14:41:55;10.65;;;4.85;;
8919;SDS011;4495;42.644;23.274;2024-03-23T14:44:21;3.40;;;1.88;;
8919;SDS011;4495;42.644;23.274;2024-03-23T14:49:15;5.53;;;2.40;;
8919;SDS011;4495;42.644;23.274;2024-03-23T14:51:44;3.47;;;2.10;;
8919;SDS011;4495;42.644;23.274;2024-03-23T14:54:10;9.02;;;5.22;;
8919;SDS011;4495;42.644;23.274;2024-03-23T14:56:36;5.32;;;2.88;;
8919;SDS011;4495;42.644;23.274;2024-03-23T14:59:02;3.92;;;2.25;;
8919;SDS011;4495;42.644;23.274;2024-03-23T15:01:28;7.20;;;2.42;;
8919;SDS011;4495;42.644;23.274;2024-03-23T15:03:53;3.80;;;2.00;;
8919;SDS011;4495;42.644;23.274;2024-03-23T15:06:18;5.00;;;2.80;;
8919;SDS011;4495;42.644;23.274;2024-03-23T15:08:44;11.18;;;6.55;;
8919;SDS011;4495;42.644;23.274;2024-03-23T15:11:10;4.00;;;2.53;;
8919;SDS011;4495;42.644;23.274;2024-03-23T15:13:35;7.40;;;2.40;;
8919;SDS011;4495;42.644;23.274;2024-03-23T15:16:01;3.25;;;2.17;;
8919;SDS011;4495;42.644;23.274;2024-03-23T15:18:30;4.25;;;2.50;;
8919;SDS011;4495;42.644;23.274;2024-03-23T15:20:57;4.00;;;2.60;;
8919;SDS011;4495;42.644;23.274;2024-03-23T15:23:44;4.00;;;2.40;;
8919;SDS011;4495;42.644;23.274;2024-03-23T15:26:09;6.13;;;3.60;;
8919;SDS011;4495;42.644;23.274;2024-03-23T15:28:35;7.35;;;3.90;;
8919;SDS011;4495;42.644;23.274;2024-03-23T15:31:07;12.80;;;6.75;;
8919;SDS011;4495;42.644;23.274;2024-03-23T15:33:34;5.32;;;2.50;;
8919;SDS011;4495;42.644;23.274;2024-03-23T15:36:00;3.05;;;1.92;;
8919;SDS011;4495;42.644;23.274;2024-03-23T15:38:26;3.90;;;2.10;;
8919;SDS011;4495;42.644;23.274;2024-03-23T15:40:51;3.90;;;2.30;;
8919;SDS011;4495;42.644;23.274;2024-03-23T15:43:17;6.05;;;3.38;;
8919;SDS011;4495;42.644;23.274;2024-03-23T15:45:43;8.95;;;2.90;;
8919;SDS011;4495;42.644;23.274;2024-03-23T15:48:09;5.55;;;2.53;;
8919;SDS011;4495;42.644;23.274;2024-03-23T15:50:34;2.90;;;1.52;;
8919;SDS011;4495;42.644;23.274;2024-03-23T15:52:59;3.30;;;1.60;;
8919;SDS011;4495;42.644;23.274;2024-03-23T15:55:25;2.97;;;1.90;;
8919;SDS011;4495;42.644;23.274;2024-03-23T15:57:50;1.98;;;1.50;;
8919;SDS011;4495;42.644;23.274;2024-03-23T16:00:16;4.03;;;1.90;;
8919;SDS011;4495;42.644;23.274;2024-03-23T16:02:42;3.40;;;1.95;;
8919;SDS011;4495;42.644;23.274;2024-03-23T16:05:08;3.45;;;1.80;;
8919;SDS011;4495;42.644;23.274;2024-03-23T16:07:36;4.30;;;2.13;;
8919;SDS011;4495;42.644;23.274;2024-03-23T16:10:01;4.70;;;1.77;;
8919;SDS011;4495;42.644;23.274;2024-03-23T16:12:30;4.45;;;1.83;;
8919;SDS011;4495;42.644;23.274;2024-03-23T16:14:56;3.30;;;2.00;;
8919;SDS011;4495;42.644;23.274;2024-03-23T16:17:24;2.97;;;1.92;;
8919;SDS011;4495;42.644;23.274;2024-03-23T16:19:49;4.10;;;1.70;;
8919;SDS011;4495;42.644;23.274;2024-03-23T16:22:15;4.15;;;2.30;;
8919;SDS011;4495;42.644;23.274;2024-03-23T16:24:40;2.45;;;1.60;;
8919;SDS011;4495;42.644;23.274;2024-03-23T16:27:06;5.28;;;2.05;;
8919;SDS011;4495;42.644;23.274;2024-03-23T16:29:31;3.80;;;2.20;;
8919;SDS011;4495;42.644;23.274;2024-03-23T16:31:56;3.00;;;1.77;;
8919;SDS011;4495;42.644;23.274;2024-03-23T16:34:22;3.03;;;1.85;;
8919;SDS011;4495;42.644;23.274;2024-03-23T16:36:47;3.63;;;1.95;;
8919;SDS011;4495;42.644;23.274;2024-03-23T16:39:12;3.78;;;2.28;;
8919;SDS011;4495;42.644;23.274;2024-03-23T16:41:43;4.45;;;2.70;;
8919;SDS011;4495;42.644;23.274;2024-03-23T16:44:08;3.17;;;2.10;;